createdAt,value
2023-03-08T00:01:15.996Z,100.00
2023-03-08T00:03:44.922Z,100.00
2023-03-08T00:06:13.725Z,100.00
2023-03-08T00:08:46.340Z,100.00
2023-03-08T00:11:15.742Z,100.00
2023-03-08T00:13:44.276Z,100.00
2023-03-08T00:16:12.686Z,100.00
2023-03-08T00:18:43.701Z,100.00
2023-03-08T00:21:13.172Z,100.00
2023-03-08T00:23:45.321Z,100.00
2023-03-08T00:26:13.626Z,100.00
2023-03-08T00:28:42.270Z,100.00
2023-03-08T00:31:11.932Z,100.00
2023-03-08T00:33:40.919Z,100.00
2023-03-08T00:36:14.088Z,100.00
2023-03-08T00:38:43.178Z,100.00
2023-03-08T00:41:11.464Z,100.00
2023-03-08T00:43:41.507Z,100.00
2023-03-08T00:46:09.936Z,100.00
2023-03-08T00:48:38.094Z,100.00
2023-03-08T00:51:06.944Z,100.00
2023-03-08T00:53:35.229Z,100.00
2023-03-08T00:56:03.564Z,100.00
2023-03-08T00:58:33.497Z,100.00
2023-03-08T01:01:04.543Z,100.00
2023-03-08T01:03:33.674Z,100.00
2023-03-08T01:06:09.827Z,100.00
2023-03-08T01:08:40.498Z,100.00
2023-03-08T01:11:13.934Z,100.00
2023-03-08T01:13:42.270Z,100.00
2023-03-08T01:16:20.476Z,100.00
2023-03-08T01:18:50.700Z,100.00
2023-03-08T01:21:21.277Z,100.00
2023-03-08T01:23:49.757Z,100.00
2023-03-08T01:26:18.869Z,100.00
2023-03-08T01:28:48.194Z,100.00
2023-03-08T01:31:17.354Z,100.00
2023-03-08T01:33:46.932Z,100.00
2023-03-08T01:36:17.246Z,100.00
2023-03-08T01:38:46.077Z,100.00
2023-03-08T01:41:25.042Z,100.00
2023-03-08T01:43:53.534Z,100.00
2023-03-08T01:46:28.937Z,100.00
2023-03-08T01:49:08.398Z,100.00
2023-03-08T01:51:40.121Z,100.00
2023-03-08T01:54:09.924Z,100.00
2023-03-08T01:56:39.056Z,100.00
2023-03-08T01:59:08.058Z,100.00
2023-03-08T02:01:36.751Z,100.00
2023-03-08T02:04:05.494Z,100.00
2023-03-08T02:06:38.263Z,100.00
2023-03-08T02:09:06.840Z,100.00
2023-03-08T02:11:35.763Z,100.00
2023-03-08T02:14:04.564Z,100.00
2023-03-08T02:16:33.953Z,100.00
2023-03-08T02:19:03.628Z,100.00
2023-03-08T02:21:33.332Z,100.00
2023-03-08T02:24:17.540Z,100.00
2023-03-08T02:26:47.739Z,100.00
2023-03-08T02:29:16.000Z,100.00
2023-03-08T02:31:44.564Z,100.00
2023-03-08T02:34:12.998Z,100.00
2023-03-08T02:36:41.146Z,100.00
2023-03-08T02:39:09.501Z,100.00
2023-03-08T02:41:38.999Z,100.00
2023-03-08T02:44:07.496Z,100.00
2023-03-08T02:46:37.417Z,100.00
2023-03-08T02:49:06.129Z,100.00
2023-03-08T02:51:34.889Z,100.00
2023-03-08T02:54:03.492Z,100.00
2023-03-08T02:56:32.055Z,100.00
2023-03-08T02:59:00.526Z,100.00
2023-03-08T03:01:29.056Z,100.00
2023-03-08T03:03:57.635Z,100.00
2023-03-08T03:06:25.860Z,100.00
2023-03-08T03:08:56.988Z,100.00
2023-03-08T03:11:25.343Z,100.00
2023-03-08T03:13:56.632Z,100.00
2023-03-08T03:16:26.357Z,100.00
2023-03-08T03:18:54.962Z,100.00
2023-03-08T03:21:23.734Z,100.00
2023-03-08T03:23:56.113Z,100.00
2023-03-08T03:26:30.280Z,100.00
2023-03-08T03:28:59.167Z,100.00
2023-03-08T03:31:30.094Z,100.00
2023-03-08T03:33:58.807Z,100.00
2023-03-08T03:36:27.918Z,100.00
2023-03-08T03:38:56.441Z,100.00
2023-03-08T03:41:24.674Z,100.00
2023-03-08T03:44:01.847Z,100.00
2023-03-08T03:46:36.396Z,100.00
2023-03-08T03:49:05.739Z,100.00
2023-03-08T03:51:37.271Z,100.00
2023-03-08T03:54:16.290Z,100.00
2023-03-08T03:56:45.600Z,100.00
2023-03-08T03:59:14.041Z,100.00
2023-03-08T04:01:45.353Z,100.00
2023-03-08T04:04:22.209Z,100.00
2023-03-08T04:06:50.887Z,100.00
2023-03-08T04:09:25.202Z,100.00
2023-03-08T04:12:05.786Z,100.00
2023-03-08T04:14:34.797Z,100.00
2023-03-08T04:17:03.587Z,100.00
2023-03-08T04:19:38.741Z,100.00
2023-03-08T04:22:07.663Z,100.00
2023-03-08T04:24:42.523Z,100.00
2023-03-08T04:27:14.389Z,100.00
2023-03-08T04:29:43.525Z,100.00
2023-03-08T04:32:12.171Z,100.00
2023-03-08T04:34:45.294Z,100.00
2023-03-08T04:37:15.740Z,100.00
2023-03-08T04:39:47.275Z,100.00
2023-03-08T04:42:17.217Z,100.00
2023-03-08T04:44:46.661Z,100.00
2023-03-08T04:47:16.783Z,100.00
2023-03-08T04:49:46.791Z,100.00
2023-03-08T04:52:15.088Z,100.00
2023-03-08T04:54:44.200Z,100.00
2023-03-08T04:57:20.827Z,100.00
2023-03-08T04:59:49.940Z,100.00
2023-03-08T05:02:18.399Z,100.00
2023-03-08T05:04:47.452Z,100.00
2023-03-08T05:07:19.141Z,100.00
2023-03-08T05:09:48.083Z,100.00
2023-03-08T05:12:16.747Z,100.00
2023-03-08T05:14:51.135Z,100.00
2023-03-08T05:17:20.803Z,100.00
2023-03-08T05:19:49.409Z,100.00
2023-03-08T05:22:21.261Z,100.00
2023-03-08T05:24:51.244Z,100.00
2023-03-08T05:27:19.843Z,100.00
2023-03-08T05:29:48.278Z,100.00
2023-03-08T05:32:23.051Z,100.00
2023-03-08T05:34:52.670Z,100.00
2023-03-08T05:37:27.492Z,100.00
2023-03-08T05:39:58.104Z,100.00
2023-03-08T05:42:27.619Z,100.00
2023-03-08T05:44:56.503Z,100.00
2023-03-08T05:47:30.579Z,100.00
2023-03-08T05:49:58.910Z,100.00
2023-03-08T05:52:29.589Z,100.00
2023-03-08T05:54:59.224Z,100.00
2023-03-08T05:57:28.658Z,100.00
2023-03-08T05:59:57.158Z,100.00
2023-03-08T06:02:26.832Z,100.00
2023-03-08T06:04:56.527Z,100.00
2023-03-08T06:07:25.941Z,100.00
2023-03-08T06:10:03.529Z,100.00
2023-03-08T06:12:36.206Z,100.00
2023-03-08T06:15:06.277Z,100.00
2023-03-08T06:17:41.323Z,100.00
2023-03-08T06:20:10.685Z,100.00
2023-03-08T06:22:41.280Z,100.00
2023-03-08T06:25:11.163Z,100.00
2023-03-08T06:27:40.818Z,100.00
2023-03-08T06:30:15.481Z,100.00
2023-03-08T06:32:44.196Z,100.00
2023-03-08T06:35:12.852Z,100.00
2023-03-08T06:37:48.626Z,100.00
2023-03-08T06:40:17.617Z,100.00
2023-03-08T06:42:46.423Z,100.00
2023-03-08T06:45:16.437Z,100.00
2023-03-08T06:47:44.675Z,100.00
2023-03-08T06:50:13.879Z,100.00
2023-03-08T06:52:43.497Z,100.00
2023-03-08T06:55:12.484Z,100.00
2023-03-08T06:57:41.750Z,100.00
2023-03-08T07:00:14.684Z,100.00
2023-03-08T07:02:43.331Z,100.00
2023-03-08T07:05:11.533Z,100.00
2023-03-08T07:07:41.970Z,100.00
2023-03-08T07:10:16.924Z,100.00
2023-03-08T07:12:48.711Z,100.00
2023-03-08T07:15:19.254Z,100.00
2023-03-08T07:17:49.542Z,100.00
2023-03-08T07:20:18.860Z,100.00
2023-03-08T07:22:48.194Z,100.00
2023-03-08T07:25:17.158Z,100.00
2023-03-08T07:27:47.272Z,100.00
2023-03-08T07:30:15.797Z,100.00
2023-03-08T07:32:45.409Z,100.00
2023-03-08T07:35:14.415Z,100.00
2023-03-08T07:37:46.213Z,100.00
2023-03-08T07:40:15.225Z,100.00
2023-03-08T07:42:46.011Z,100.00
2023-03-08T07:45:42.226Z,100.00
2023-03-08T07:48:10.604Z,100.00
2023-03-08T07:50:38.953Z,100.00
2023-03-08T07:53:09.418Z,100.00
2023-03-08T07:55:38.964Z,100.00
2023-03-08T07:58:10.243Z,100.00
2023-03-08T08:00:38.845Z,100.00
2023-03-08T08:03:07.322Z,100.00
2023-03-08T08:05:38.534Z,100.00
2023-03-08T08:08:06.951Z,100.00
2023-03-08T08:10:37.927Z,100.00
2023-03-08T08:13:07.787Z,100.00
2023-03-08T08:15:36.325Z,100.00
2023-03-08T08:18:08.016Z,100.00
2023-03-08T08:20:38.289Z,100.00
2023-03-08T08:23:06.870Z,100.00
2023-03-08T08:25:36.143Z,100.00
2023-03-08T08:28:05.514Z,100.00
2023-03-08T08:30:33.858Z,100.00
2023-03-08T08:33:04.136Z,100.00
2023-03-08T08:35:42.840Z,100.00
2023-03-08T08:38:13.076Z,100.00
2023-03-08T08:40:42.085Z,100.00
2023-03-08T08:43:12.345Z,100.00
2023-03-08T08:45:48.932Z,100.00
2023-03-08T08:48:17.144Z,100.00
2023-03-08T08:50:45.757Z,100.00
2023-03-08T08:53:14.368Z,100.00
2023-03-08T08:55:44.501Z,100.00
2023-03-08T08:58:13.986Z,100.00
2023-03-08T09:00:42.275Z,100.00
2023-03-08T09:03:11.069Z,100.00
2023-03-08T09:05:40.154Z,100.00
2023-03-08T09:08:10.291Z,100.00
2023-03-08T09:10:39.017Z,100.00
2023-03-08T09:13:07.851Z,100.00
2023-03-08T09:15:37.413Z,100.00
2023-03-08T09:18:07.001Z,100.00
2023-03-08T09:20:37.793Z,100.00
2023-03-08T09:23:06.137Z,100.00
2023-03-08T09:25:34.422Z,100.00
2023-03-08T09:28:05.450Z,100.00
2023-03-08T09:30:33.659Z,100.00
2023-03-08T09:33:04.092Z,100.00
2023-03-08T09:35:32.443Z,100.00
2023-03-08T09:38:02.108Z,100.00
2023-03-08T09:40:30.375Z,100.00
2023-03-08T09:42:59.000Z,100.00
2023-03-08T09:45:30.119Z,100.00
2023-03-08T09:48:00.391Z,100.00
2023-03-08T09:50:33.839Z,100.00
2023-03-08T09:53:18.405Z,100.00
2023-03-08T09:55:51.629Z,100.00
2023-03-08T09:58:40.328Z,100.00
2023-03-08T10:01:20.857Z,95.91
2023-03-08T10:04:04.816Z,93.78
2023-03-08T10:06:38.978Z,92.98
2023-03-08T10:09:20.116Z,93.77
2023-03-08T10:11:48.299Z,94.47
2023-03-08T10:14:18.412Z,96.30
2023-03-08T10:16:49.310Z,97.02
2023-03-08T10:19:20.549Z,97.70
2023-03-08T10:21:49.933Z,97.67
2023-03-08T10:24:26.919Z,97.07
2023-03-08T10:26:55.157Z,93.84
2023-03-08T10:29:24.737Z,90.23
2023-03-08T10:31:53.104Z,89.03
2023-03-08T10:34:22.220Z,88.44
2023-03-08T10:36:52.337Z,87.36
2023-03-08T10:39:20.741Z,87.58
2023-03-08T10:41:50.234Z,86.74
2023-03-08T10:44:30.365Z,85.30
2023-03-08T10:46:58.522Z,83.10
2023-03-08T10:49:28.030Z,81.15
2023-03-08T10:51:57.806Z,81.57
2023-03-08T10:54:26.546Z,82.86
2023-03-08T10:56:56.844Z,81.38
2023-03-08T10:59:34.679Z,82.04
2023-03-08T11:02:15.629Z,81.74
2023-03-08T11:04:53.955Z,80.88
2023-03-08T11:07:26.128Z,80.57
2023-03-08T11:10:10.026Z,78.01
2023-03-08T11:12:38.954Z,76.59
2023-03-08T11:15:17.784Z,76.68
2023-03-08T11:18:07.465Z,76.50
2023-03-08T11:20:45.664Z,76.55
2023-03-08T11:23:32.956Z,76.08
2023-03-08T11:26:09.548Z,76.42
2023-03-08T11:28:45.020Z,76.62
2023-03-08T11:31:39.725Z,75.05
2023-03-08T11:34:30.991Z,75.79
2023-03-08T11:37:12.726Z,76.44
2023-03-08T11:39:47.486Z,76.68
2023-03-08T11:42:22.147Z,75.86
2023-03-08T11:45:01.060Z,74.29
2023-03-08T11:47:38.624Z,69.66
2023-03-08T11:50:31.733Z,64.29
2023-03-08T11:53:17.448Z,63.09
2023-03-08T11:55:58.304Z,63.24
2023-03-08T11:58:35.146Z,63.35
2023-03-08T12:01:06.306Z,62.60
2023-03-08T12:03:35.518Z,61.76
2023-03-08T12:06:26.471Z,61.55
2023-03-08T12:09:01.426Z,61.04
2023-03-08T12:11:38.984Z,60.77
2023-03-08T12:14:19.320Z,60.72
2023-03-08T12:16:49.254Z,61.64
2023-03-08T12:19:29.775Z,62.17
2023-03-08T12:22:16.847Z,61.79
2023-03-08T12:25:04.616Z,61.04
2023-03-08T12:27:36.869Z,59.41
2023-03-08T12:30:11.997Z,59.46
2023-03-08T12:32:56.427Z,60.10
2023-03-08T12:35:30.008Z,61.38
2023-03-08T12:37:59.792Z,62.38
2023-03-08T12:40:28.503Z,63.11
2023-03-08T12:43:07.055Z,63.40
2023-03-08T12:45:35.484Z,63.58
2023-03-08T12:48:06.909Z,63.93
2023-03-08T12:50:40.991Z,63.45
2023-03-08T12:53:28.439Z,61.58
2023-03-08T12:56:03.726Z,59.71
2023-03-08T12:58:34.973Z,59.37
2023-03-08T13:01:04.895Z,59.50
2023-03-08T13:03:38.981Z,58.82
2023-03-08T13:06:22.845Z,58.42
2023-03-08T13:08:53.394Z,58.54
2023-03-08T13:11:24.929Z,58.57
2023-03-08T13:13:56.759Z,58.90
2023-03-08T13:16:25.070Z,58.72
2023-03-08T13:19:01.783Z,58.90
2023-03-08T13:21:35.358Z,59.06
2023-03-08T13:24:20.940Z,58.43
2023-03-08T13:27:01.576Z,58.69
2023-03-08T13:29:30.901Z,58.80
2023-03-08T13:32:06.297Z,58.57
2023-03-08T13:34:35.464Z,58.35
2023-03-08T13:37:04.784Z,58.49
2023-03-08T13:39:33.155Z,58.62
2023-03-08T13:42:08.559Z,58.75
2023-03-08T13:44:37.064Z,58.72
2023-03-08T13:47:10.275Z,58.92
2023-03-08T13:49:42.253Z,58.94
2023-03-08T13:52:30.127Z,58.66
2023-03-08T13:54:59.242Z,59.00
2023-03-08T13:57:28.143Z,58.95
2023-03-08T14:00:00.778Z,59.44
2023-03-08T14:02:29.769Z,59.66
2023-03-08T14:04:58.517Z,60.18
2023-03-08T14:07:28.908Z,60.56
2023-03-08T14:09:57.294Z,60.42
2023-03-08T14:12:26.627Z,60.30
2023-03-08T14:15:01.657Z,60.45
2023-03-08T14:17:30.882Z,60.85
2023-03-08T14:20:00.566Z,61.15
2023-03-08T14:22:39.187Z,61.62
2023-03-08T14:25:20.799Z,61.86
2023-03-08T14:27:49.036Z,61.80
2023-03-08T14:30:17.890Z,61.92
2023-03-08T14:32:58.613Z,61.66
2023-03-08T14:35:30.903Z,61.66
2023-03-08T14:37:59.226Z,62.02
2023-03-08T14:40:28.762Z,62.39
2023-03-08T14:43:04.842Z,62.73
2023-03-08T14:45:50.491Z,63.04
2023-03-08T14:48:25.917Z,63.32
2023-03-08T14:50:57.945Z,63.64
2023-03-08T14:53:30.386Z,63.76
2023-03-08T14:56:00.485Z,63.94
2023-03-08T14:58:32.371Z,64.27
2023-03-08T15:01:01.528Z,64.26
2023-03-08T15:03:30.285Z,64.57
2023-03-08T15:05:58.889Z,64.82
2023-03-08T15:08:29.534Z,65.16
2023-03-08T15:10:57.900Z,65.44
2023-03-08T15:13:27.554Z,65.92
2023-03-08T15:15:55.695Z,66.01
2023-03-08T15:18:24.881Z,66.08
2023-03-08T15:20:53.077Z,66.35
2023-03-08T15:23:25.008Z,66.56
2023-03-08T15:25:53.141Z,66.53
2023-03-08T15:28:21.757Z,66.44
2023-03-08T15:30:52.908Z,66.37
2023-03-08T15:33:21.817Z,66.52
2023-03-08T15:35:50.427Z,67.03
2023-03-08T15:38:18.779Z,67.02
2023-03-08T15:40:47.276Z,66.75
2023-03-08T15:43:16.492Z,66.33
2023-03-08T15:45:45.027Z,65.39
2023-03-08T15:48:14.338Z,65.62
2023-03-08T15:50:43.166Z,66.40
2023-03-08T15:53:23.305Z,66.63
2023-03-08T15:55:58.292Z,67.09
2023-03-08T15:58:28.230Z,67.64
2023-03-08T16:00:56.654Z,68.49
2023-03-08T16:03:31.069Z,69.09
2023-03-08T16:05:59.910Z,70.06
2023-03-08T16:08:29.143Z,71.03
2023-03-08T16:11:03.902Z,72.12
2023-03-08T16:13:34.284Z,73.68
2023-03-08T16:16:03.428Z,75.21
2023-03-08T16:18:32.044Z,76.24
2023-03-08T16:21:00.211Z,77.77
2023-03-08T16:23:28.407Z,79.45
2023-03-08T16:26:14.623Z,81.09
2023-03-08T16:28:46.260Z,83.17
2023-03-08T16:31:14.910Z,84.63
2023-03-08T16:33:43.381Z,86.24
2023-03-08T16:36:11.949Z,88.02
2023-03-08T16:38:43.381Z,89.52
2023-03-08T16:41:14.125Z,90.62
2023-03-08T16:43:48.766Z,91.85
2023-03-08T16:46:19.497Z,92.80
2023-03-08T16:48:53.608Z,93.86
2023-03-08T16:51:24.116Z,95.24
2023-03-08T16:53:52.365Z,96.33
2023-03-08T16:56:22.381Z,97.34
2023-03-08T16:58:50.833Z,98.40
2023-03-08T17:01:26.615Z,99.32
2023-03-08T17:03:55.488Z,99.99
2023-03-08T17:06:25.084Z,100.00
2023-03-08T17:08:53.353Z,100.00
2023-03-08T17:11:23.263Z,100.00
2023-03-08T17:13:55.581Z,100.00
2023-03-08T17:16:25.704Z,100.00
2023-03-08T17:18:55.028Z,100.00
2023-03-08T17:21:23.609Z,100.00
2023-03-08T17:23:53.611Z,100.00
2023-03-08T17:26:22.751Z,100.00
2023-03-08T17:28:51.442Z,100.00
2023-03-08T17:31:21.006Z,100.00
2023-03-08T17:33:49.676Z,100.00
2023-03-08T17:36:22.493Z,100.00
2023-03-08T17:38:53.628Z,100.00
2023-03-08T17:41:26.163Z,100.00
2023-03-08T17:43:54.377Z,100.00
2023-03-08T17:46:23.437Z,100.00
2023-03-08T17:48:53.401Z,100.00
2023-03-08T17:51:27.846Z,100.00
2023-03-08T17:53:58.257Z,100.00
2023-03-08T17:56:29.713Z,100.00
2023-03-08T17:59:03.095Z,100.00
2023-03-08T18:01:32.027Z,100.00
2023-03-08T18:04:00.545Z,100.00
2023-03-08T18:06:38.840Z,100.00
2023-03-08T18:09:08.317Z,100.00
2023-03-08T18:11:38.065Z,100.00
2023-03-08T18:14:06.649Z,100.00
2023-03-08T18:16:35.067Z,100.00
2023-03-08T18:19:08.005Z,100.00
2023-03-08T18:21:40.860Z,100.00
2023-03-08T18:24:13.568Z,100.00
2023-03-08T18:26:42.242Z,100.00
2023-03-08T18:29:12.649Z,100.00
2023-03-08T18:31:41.717Z,100.00
2023-03-08T18:34:10.621Z,100.00
2023-03-08T18:36:39.062Z,100.00
2023-03-08T18:39:08.197Z,100.00
2023-03-08T18:41:36.616Z,100.00
2023-03-08T18:44:10.763Z,100.00
2023-03-08T18:46:39.685Z,100.00
2023-03-08T18:49:08.820Z,100.00
2023-03-08T18:51:37.638Z,100.00
2023-03-08T18:54:09.273Z,100.00
2023-03-08T18:56:38.910Z,100.00
2023-03-08T18:59:07.457Z,100.00
2023-03-08T19:01:36.858Z,100.00
2023-03-08T19:04:06.464Z,100.00
2023-03-08T19:06:35.672Z,100.00
2023-03-08T19:09:07.790Z,100.00
2023-03-08T19:11:36.542Z,100.00
2023-03-08T19:14:05.245Z,100.00
2023-03-08T19:16:35.266Z,100.00
2023-03-08T19:19:10.400Z,100.00
2023-03-08T19:21:41.475Z,100.00
2023-03-08T19:24:11.223Z,100.00
2023-03-08T19:26:41.186Z,100.00
2023-03-08T19:29:13.091Z,100.00
2023-03-08T19:31:42.824Z,100.00
2023-03-08T19:34:11.239Z,100.00
2023-03-08T19:36:43.768Z,100.00
2023-03-08T19:39:16.020Z,100.00
2023-03-08T19:41:44.888Z,100.00
2023-03-08T19:44:13.230Z,100.00
2023-03-08T19:46:42.952Z,100.00
2023-03-08T19:49:12.662Z,100.00
2023-03-08T19:51:41.022Z,100.00
2023-03-08T19:54:09.610Z,100.00
2023-03-08T19:56:38.408Z,100.00
2023-03-08T19:59:09.048Z,100.00
2023-03-08T20:01:37.990Z,100.00
2023-03-08T20:04:06.524Z,100.00
2023-03-08T20:06:35.684Z,100.00
2023-03-08T20:09:04.442Z,100.00
2023-03-08T20:11:33.133Z,100.00
2023-03-08T20:14:03.943Z,100.00
2023-03-08T20:16:33.099Z,100.00
2023-03-08T20:19:01.981Z,100.00
2023-03-08T20:21:36.869Z,100.00
2023-03-08T20:24:06.599Z,100.00
2023-03-08T20:26:35.382Z,100.00
2023-03-08T20:29:03.820Z,100.00
2023-03-08T20:31:32.441Z,100.00
2023-03-08T20:34:00.892Z,100.00
2023-03-08T20:36:34.428Z,100.00
2023-03-08T20:39:03.161Z,100.00
2023-03-08T20:41:32.072Z,100.00
2023-03-08T20:44:00.436Z,100.00
2023-03-08T20:46:33.475Z,100.00
2023-03-08T20:49:02.334Z,100.00
2023-03-08T20:51:31.240Z,100.00
2023-03-08T20:53:59.755Z,100.00
2023-03-08T20:56:28.349Z,100.00
2023-03-08T20:58:57.002Z,100.00
2023-03-08T21:01:26.491Z,100.00
2023-03-08T21:03:55.087Z,100.00
2023-03-08T21:06:24.739Z,100.00
2023-03-08T21:08:54.353Z,100.00
2023-03-08T21:11:22.677Z,100.00
2023-03-08T21:13:51.221Z,100.00
2023-03-08T21:16:20.080Z,100.00
2023-03-08T21:18:52.556Z,100.00
2023-03-08T21:21:27.221Z,100.00
2023-03-08T21:23:55.769Z,100.00
2023-03-08T21:26:25.806Z,100.00
2023-03-08T21:28:55.391Z,100.00
2023-03-08T21:31:23.795Z,100.00
2023-03-08T21:33:53.686Z,100.00
2023-03-08T21:36:26.212Z,100.00
2023-03-08T21:38:55.081Z,100.00
2023-03-08T21:41:24.263Z,100.00
2023-03-08T21:43:52.654Z,100.00
2023-03-08T21:46:21.509Z,100.00
2023-03-08T21:48:49.957Z,100.00
2023-03-08T21:51:18.261Z,100.00
2023-03-08T21:53:47.343Z,100.00
2023-03-08T21:56:16.091Z,100.00
2023-03-08T21:58:45.566Z,100.00
2023-03-08T22:01:21.532Z,100.00
2023-03-08T22:03:51.143Z,100.00
2023-03-08T22:06:19.539Z,100.00
2023-03-08T22:08:49.899Z,100.00
2023-03-08T22:11:18.493Z,100.00
2023-03-08T22:13:50.779Z,100.00
2023-03-08T22:16:19.458Z,100.00
2023-03-08T22:18:48.989Z,100.00
2023-03-08T22:21:17.147Z,100.00
2023-03-08T22:23:45.542Z,100.00
2023-03-08T22:26:13.798Z,100.00
2023-03-08T22:28:43.162Z,100.00
2023-03-08T22:31:20.131Z,100.00
2023-03-08T22:33:49.813Z,100.00
2023-03-08T22:36:24.117Z,100.00
2023-03-08T22:38:52.522Z,100.00
2023-03-08T22:41:21.752Z,100.00
2023-03-08T22:43:50.126Z,100.00
2023-03-08T22:46:19.837Z,100.00
2023-03-08T22:48:57.750Z,100.00
2023-03-08T22:51:27.829Z,100.00
2023-03-08T22:53:56.548Z,100.00
2023-03-08T22:56:25.832Z,100.00
2023-03-08T22:58:56.173Z,100.00
2023-03-08T23:01:24.623Z,100.00
2023-03-08T23:03:53.861Z,100.00
2023-03-08T23:06:22.207Z,100.00
2023-03-08T23:08:50.711Z,100.00
2023-03-08T23:11:22.750Z,100.00
2023-03-08T23:13:51.009Z,100.00
2023-03-08T23:16:19.726Z,100.00
2023-03-08T23:18:48.453Z,100.00
2023-03-08T23:21:17.413Z,100.00
2023-03-08T23:23:46.172Z,100.00
2023-03-08T23:26:16.494Z,100.00
2023-03-08T23:28:45.105Z,100.00
2023-03-08T23:31:16.431Z,100.00
2023-03-08T23:33:45.719Z,100.00
2023-03-08T23:36:14.571Z,100.00
2023-03-08T23:38:43.290Z,100.00
2023-03-08T23:41:12.760Z,100.00
2023-03-08T23:43:41.394Z,100.00
2023-03-08T23:46:10.926Z,100.00
2023-03-08T23:48:46.937Z,100.00
2023-03-08T23:51:16.293Z,100.00
2023-03-08T23:53:44.588Z,100.00
2023-03-08T23:56:20.083Z,100.00
2023-03-08T23:58:49.330Z,100.00
